createdAt,value
2019-03-06T00:02:03.231Z,21.36
2019-03-06T00:07:07.499Z,21.34
2019-03-06T00:12:11.653Z,21.28
2019-03-06T00:17:15.929Z,21.26
2019-03-06T00:22:19.952Z,21.23
2019-03-06T00:27:24.127Z,21.19
2019-03-06T00:32:28.178Z,21.15
2019-03-06T00:37:32.584Z,21.13
2019-03-06T00:42:42.853Z,21.13
2019-03-06T00:47:46.966Z,21.11
2019-03-06T00:52:51.161Z,21.05
2019-03-06T00:57:55.321Z,21.01
2019-03-06T01:02:59.552Z,20.99
2019-03-06T01:08:03.955Z,20.95
2019-03-06T01:13:08.096Z,20.92
2019-03-06T01:18:12.548Z,20.90
2019-03-06T01:23:16.630Z,20.88
2019-03-06T01:28:20.901Z,20.76
2019-03-06T01:33:49.258Z,20.81
2019-03-06T01:39:24.277Z,20.72
2019-03-06T01:44:47.368Z,20.72
2019-03-06T01:49:51.671Z,20.69
2019-03-06T01:54:55.764Z,20.76
2019-03-06T01:59:59.802Z,20.73
2019-03-06T02:05:04.088Z,20.64
2019-03-06T02:10:09.705Z,20.70
2019-03-06T02:15:15.563Z,20.68
2019-03-06T02:20:19.879Z,20.58
2019-03-06T02:25:24.042Z,20.66
2019-03-06T02:30:28.273Z,20.64
2019-03-06T02:35:32.366Z,20.64
2019-03-06T02:40:36.420Z,20.62
2019-03-06T02:45:40.557Z,20.59
2019-03-06T02:50:44.885Z,20.58
2019-03-06T02:55:49.009Z,20.56
2019-03-06T03:01:04.438Z,20.54
2019-03-06T03:06:14.352Z,20.54
2019-03-06T03:11:18.395Z,20.51
2019-03-06T03:16:22.447Z,20.50
2019-03-06T03:21:27.104Z,20.48
2019-03-06T03:26:31.582Z,20.47
2019-03-06T03:31:35.621Z,20.38
2019-03-06T03:36:39.698Z,20.35
2019-03-06T03:41:43.990Z,20.34
2019-03-06T03:46:48.214Z,20.42
2019-03-06T03:51:52.505Z,20.42
2019-03-06T03:56:56.577Z,20.39
2019-03-06T04:02:00.790Z,20.37
2019-03-06T04:07:05.042Z,20.35
2019-03-06T04:12:09.237Z,20.34
2019-03-06T04:17:13.299Z,20.25
2019-03-06T04:22:17.583Z,20.37
2019-03-06T04:27:21.658Z,20.37
2019-03-06T04:32:25.689Z,20.34
2019-03-06T04:37:29.739Z,20.29
2019-03-06T04:42:33.955Z,20.29
2019-03-06T04:47:41.422Z,20.27
2019-03-06T04:52:45.227Z,20.26
2019-03-06T04:57:49.290Z,20.24
2019-03-06T05:02:53.478Z,20.22
2019-03-06T05:07:57.563Z,20.21
2019-03-06T05:13:01.643Z,20.21
2019-03-06T05:18:20.025Z,20.11
2019-03-06T05:23:24.114Z,20.17
2019-03-06T05:28:28.254Z,20.08
2019-03-06T05:33:32.414Z,20.07
2019-03-06T05:38:41.490Z,20.13
2019-03-06T05:43:45.670Z,20.13
2019-03-06T05:48:49.731Z,20.11
2019-03-06T05:53:53.833Z,20.10
2019-03-06T05:58:57.920Z,20.09
2019-03-06T06:04:02.088Z,20.07
2019-03-06T06:09:07.341Z,19.99
2019-03-06T06:14:11.598Z,20.05
2019-03-06T06:19:15.677Z,20.04
2019-03-06T06:24:22.639Z,20.02
2019-03-06T06:29:26.765Z,19.95
2019-03-06T06:34:30.948Z,20.01
2019-03-06T06:39:35.014Z,20.01
2019-03-06T06:44:39.260Z,20.01
2019-03-06T06:49:43.359Z,20.00
2019-03-06T06:54:57.008Z,19.99
2019-03-06T07:01:08.482Z,19.99
2019-03-06T07:06:28.571Z,19.99
2019-03-06T07:11:50.468Z,19.98
2019-03-06T07:17:04.842Z,19.89
2019-03-06T07:22:27.970Z,19.97
2019-03-06T07:27:48.217Z,19.97
2019-03-06T07:32:58.507Z,19.90
2019-03-06T07:38:05.492Z,19.90
2019-03-06T07:43:28.716Z,18.49
2019-03-06T07:49:22.379Z,15.15
2019-03-06T07:54:51.758Z,14.56
2019-03-06T07:59:56.274Z,13.83
2019-03-06T08:05:00.365Z,13.92
2019-03-06T08:10:11.599Z,13.62
2019-03-06T08:15:47.156Z,13.62
2019-03-06T08:21:22.643Z,13.80
2019-03-06T08:26:26.953Z,15.20
2019-03-06T08:31:43.578Z,19.09
2019-03-06T08:36:47.998Z,19.71
2019-03-06T08:41:52.313Z,20.02
2019-03-06T08:47:18.363Z,20.26
2019-03-06T08:52:41.644Z,20.55
2019-03-06T08:58:23.212Z,20.55
2019-03-06T09:03:44.652Z,20.74
2019-03-06T09:09:16.033Z,20.74
2019-03-06T09:14:30.407Z,20.70
2019-03-06T09:19:57.539Z,20.40
2019-03-06T09:25:07.466Z,20.40
2019-03-06T09:30:31.428Z,20.41
2019-03-06T09:41:07.441Z,20.57
2019-03-06T09:46:36.297Z,20.71
2019-03-06T09:52:13.995Z,20.71
2019-03-06T10:03:33.115Z,20.81
2019-03-06T10:09:04.601Z,20.81
2019-03-06T10:14:42.135Z,20.66
2019-03-06T10:20:24.796Z,20.59
2019-03-06T10:25:32.210Z,20.53
2019-03-06T10:30:44.272Z,20.63
2019-03-06T10:36:05.233Z,20.78
2019-03-06T10:41:23.945Z,20.72
2019-03-06T10:51:57.883Z,20.70
2019-03-06T11:03:30.012Z,20.72
2019-03-06T11:08:37.339Z,20.75
2019-03-06T11:13:41.678Z,20.89
2019-03-06T11:18:46.074Z,20.93
2019-03-06T11:23:50.597Z,20.93
2019-03-06T11:28:55.016Z,21.02
2019-03-06T11:33:59.303Z,20.90
2019-03-06T11:39:04.910Z,20.90
2019-03-06T11:44:09.323Z,20.90
2019-03-06T11:49:13.531Z,20.74
2019-03-06T11:54:17.709Z,20.74
2019-03-06T11:59:21.823Z,20.70
2019-03-06T12:04:26.338Z,20.73
2019-03-06T12:09:34.005Z,20.77
2019-03-06T12:14:38.157Z,20.73
2019-03-06T12:19:42.288Z,20.88
2019-03-06T12:24:46.496Z,20.93
2019-03-06T12:29:50.648Z,20.96
2019-03-06T12:34:54.726Z,20.92
2019-03-06T12:39:59.072Z,20.91
2019-03-06T12:45:03.522Z,20.88
2019-03-06T12:50:10.730Z,20.88
2019-03-06T12:55:15.324Z,20.82
2019-03-06T13:00:21.289Z,20.80
2019-03-06T13:05:25.877Z,20.80
2019-03-06T13:10:30.075Z,20.90
2019-03-06T13:15:34.191Z,20.91
2019-03-06T13:20:38.425Z,20.91
2019-03-06T13:25:42.809Z,21.09
2019-03-06T13:30:47.219Z,21.14
2019-03-06T13:35:51.591Z,21.23
2019-03-06T13:40:55.772Z,21.14
2019-03-06T13:45:59.949Z,21.23
2019-03-06T13:51:06.008Z,21.17
2019-03-06T13:56:10.412Z,21.17
2019-03-06T14:01:15.050Z,21.10
2019-03-06T14:06:19.503Z,20.97
2019-03-06T14:11:23.785Z,20.88
2019-03-06T14:16:28.024Z,20.88
2019-03-06T14:21:32.262Z,20.94
2019-03-06T14:26:36.516Z,21.00
2019-03-06T14:31:40.623Z,21.00
2019-03-06T14:36:46.442Z,20.87
2019-03-06T14:41:50.617Z,20.87
2019-03-06T14:46:54.720Z,20.74
2019-03-06T14:52:06.849Z,20.72
2019-03-06T14:57:15.954Z,20.74
2019-03-06T15:02:20.623Z,20.71
2019-03-06T15:07:36.125Z,20.84
2019-03-06T15:12:40.159Z,20.93
2019-03-06T15:17:44.693Z,21.03
2019-03-06T15:28:19.043Z,21.11
2019-03-06T15:33:58.464Z,21.11
2019-03-06T15:45:42.897Z,21.16
2019-03-06T15:50:56.129Z,21.16
2019-03-06T15:55:52.220Z,21.08
2019-03-06T16:00:57.314Z,21.16
2019-03-06T17:09:55.226Z,21.48
2019-03-06T17:15:02.762Z,21.99
2019-03-06T17:20:08.453Z,21.99
2019-03-06T17:25:12.800Z,22.42
2019-03-06T17:30:19.791Z,22.39
2019-03-06T17:35:24.995Z,22.53
2019-03-06T17:46:09.278Z,22.36
2019-03-06T17:51:14.731Z,22.36
2019-03-06T17:56:20.114Z,22.61
2019-03-06T18:01:24.517Z,22.78
2019-03-06T18:06:31.253Z,22.75
2019-03-06T18:11:35.372Z,22.72
2019-03-06T18:16:46.564Z,22.85
2019-03-06T18:21:51.043Z,22.87
2019-03-06T18:26:56.042Z,22.82
2019-03-06T18:32:00.393Z,22.82
2019-03-06T18:37:05.227Z,22.85
2019-03-06T18:42:11.770Z,22.86
2019-03-06T18:47:25.719Z,22.94
2019-03-06T18:52:40.438Z,22.99
2019-03-06T18:57:48.104Z,22.91
2019-03-06T19:02:53.262Z,22.91
2019-03-06T19:08:00.890Z,22.97
2019-03-06T19:13:12.332Z,23.01
2019-03-06T19:18:18.838Z,23.08
2019-03-06T19:29:33.591Z,23.09
2019-03-06T19:35:08.784Z,23.10
2019-03-06T19:40:19.052Z,23.09
2019-03-06T19:45:24.054Z,23.11
2019-03-06T19:50:28.326Z,23.11
2019-03-06T19:55:32.731Z,23.06
2019-03-06T20:00:37.117Z,23.09
2019-03-06T20:05:41.583Z,23.02
2019-03-06T20:10:45.854Z,23.05
2019-03-06T20:15:50.121Z,22.87
2019-03-06T20:20:54.549Z,22.87
2019-03-06T20:25:58.754Z,22.63
2019-03-06T20:31:03.098Z,22.56
2019-03-06T20:36:07.540Z,22.47
2019-03-06T20:41:11.699Z,22.41
2019-03-06T20:46:16.227Z,22.35
2019-03-06T20:51:20.479Z,22.29
2019-03-06T20:56:24.605Z,22.29
2019-03-06T21:01:28.872Z,22.28
2019-03-06T21:06:35.576Z,22.27
2019-03-06T21:11:38.856Z,22.24
2019-03-06T21:16:42.969Z,22.23
2019-03-06T21:21:47.069Z,22.20
2019-03-06T21:26:51.243Z,22.20
2019-03-06T21:31:55.567Z,22.13
2019-03-06T21:36:59.860Z,22.14
2019-03-06T21:42:04.152Z,22.12
2019-03-06T21:47:08.346Z,22.10
2019-03-06T21:52:12.573Z,22.10
2019-03-06T21:57:16.792Z,22.01
2019-03-06T22:02:20.951Z,22.07
2019-03-06T22:07:25.135Z,22.06
2019-03-06T22:12:29.280Z,22.05
2019-03-06T22:17:33.937Z,22.10
2019-03-06T22:22:38.246Z,22.19
2019-03-06T22:27:42.656Z,22.13
2019-03-06T22:37:50.453Z,22.12
2019-03-06T22:42:55.029Z,22.13
2019-03-06T22:47:59.848Z,22.13
2019-03-06T22:53:04.283Z,22.11
2019-03-06T22:58:08.811Z,22.11
2019-03-06T23:03:14.236Z,22.11
2019-03-06T23:08:18.711Z,22.10
2019-03-06T23:13:23.096Z,22.10
2019-03-06T23:18:27.523Z,22.09
2019-03-06T23:23:32.170Z,22.09
2019-03-06T23:28:36.639Z,22.09
2019-03-06T23:33:41.022Z,22.09
2019-03-06T23:38:45.262Z,22.02
2019-03-06T23:43:49.614Z,22.08
2019-03-06T23:48:54.053Z,22.08
2019-03-06T23:53:58.510Z,22.09
2019-03-06T23:59:03.241Z,22.01
